Time;durP1;ratioP1;P1;durP2;ratioP2;P2;SDS_P1;SDS_P2;PMS_P1;PMS_P2;Temp;Humidity;BMP_temperature;BMP_pressure;BME280_temperature;BME280_humidity;BME280_pressure;Samples;Min_cycle;Max_cycle;Signal;HPM_P1;HPM_P2
2022/12/28 00:01:16;;;;;;;12.43;7.95;;;5.20;99.90;;;;;;4991787;28;20496;-75
2022/12/28 00:03:42;;;;;;;15.93;8.65;;;5.20;99.90;;;;;;4977473;28;20073;-75
2022/12/28 00:06:08;;;;;;;14.50;8.32;;;5.20;99.90;;;;;;5007637;23;20398;-82
2022/12/28 00:08:35;;;;;;;12.40;7.68;;;5.20;99.90;;;;;;5007726;28;20063;-82
2022/12/28 00:11:02;;;;;;;11.55;7.30;;;5.20;99.90;;;;;;5002987;28;20041;-82
2022/12/28 00:13:29;;;;;;;11.70;7.97;;;5.20;99.90;;;;;;4985075;28;20044;-82
2022/12/28 00:15:56;;;;;;;14.38;7.97;;;5.20;99.90;;;;;;5009180;28;20372;-82
2022/12/28 00:18:21;;;;;;;15.77;8.80;;;5.20;99.90;;;;;;5021057;28;20038;-82
2022/12/28 00:21:00;;;;;;;14.07;9.07;;;5.20;99.90;;;;;;4996671;28;20102;-82
2022/12/28 00:23:26;;;;;;;11.85;8.88;;;5.20;99.90;;;;;;5003677;28;20033;-82
2022/12/28 00:25:52;;;;;;;13.73;8.75;;;5.20;99.90;;;;;;4997006;28;20038;-82
2022/12/28 00:28:18;;;;;;;13.10;8.70;;;5.20;99.90;;;;;;4990792;28;20060;-82
2022/12/28 00:30:43;;;;;;;13.93;9.05;;;5.20;99.90;;;;;;5022121;28;20041;-82
2022/12/28 00:33:09;;;;;;;12.57;8.30;;;5.20;99.90;;;;;;5005247;28;20419;-82
2022/12/28 00:35:34;;;;;;;17.13;8.52;;;5.20;99.90;;;;;;5022347;28;20146;-82
2022/12/28 00:38:00;;;;;;;14.77;8.48;;;5.30;99.90;;;;;;5005013;28;20103;-82
2022/12/28 00:40:25;;;;;;;15.88;8.57;;;5.30;99.90;;;;;;5006440;28;20048;-82
2022/12/28 00:42:51;;;;;;;12.80;8.45;;;5.20;99.90;;;;;;5004036;28;20499;-82
2022/12/28 00:45:17;;;;;;;9.02;6.85;;;5.30;99.90;;;;;;5004189;28;20152;-82
2022/12/28 00:47:42;;;;;;;14.63;8.27;;;5.30;99.90;;;;;;5004400;28;20452;-82
2022/12/28 00:50:08;;;;;;;14.10;8.30;;;5.30;99.90;;;;;;5005699;28;20061;-82
2022/12/28 00:52:34;;;;;;;13.32;8.23;;;5.30;99.90;;;;;;5023064;28;20034;-82
2022/12/28 00:54:59;;;;;;;12.50;8.40;;;5.20;99.90;;;;;;5021414;28;20063;-82
2022/12/28 00:57:25;;;;;;;15.82;9.23;;;5.30;99.90;;;;;;4991163;28;20048;-81
2022/12/28 00:59:50;;;;;;;12.63;8.38;;;5.30;99.90;;;;;;5016660;28;20037;-81
2022/12/28 01:02:16;;;;;;;13.88;8.63;;;5.30;99.90;;;;;;5017108;28;20048;-82
2022/12/28 01:04:42;;;;;;;11.18;8.45;;;5.30;99.90;;;;;;5016838;28;20046;-82
2022/12/28 01:07:07;;;;;;;13.05;8.65;;;5.30;99.90;;;;;;4984571;28;20035;-81
2022/12/28 01:09:33;;;;;;;12.23;8.32;;;5.30;99.90;;;;;;4982213;28;20562;-81
2022/12/28 01:11:58;;;;;;;12.40;8.98;;;5.30;99.90;;;;;;4981933;28;20038;-81
2022/12/28 01:14:24;;;;;;;12.27;8.85;;;5.30;99.90;;;;;;4988709;28;20033;-81
2022/12/28 01:16:50;;;;;;;12.50;9.57;;;5.40;99.90;;;;;;4994009;28;20040;-82
2022/12/28 01:19:19;;;;;;;15.35;9.35;;;5.40;99.90;;;;;;5000811;28;20033;-82
2022/12/28 01:21:48;;;;;;;13.90;8.85;;;5.40;99.90;;;;;;5001539;28;20049;-82
2022/12/28 01:24:13;;;;;;;14.10;9.10;;;5.40;99.90;;;;;;4994163;28;20041;-81
2022/12/28 01:26:39;;;;;;;10.65;9.20;;;5.40;99.90;;;;;;5000170;28;20117;-82
2022/12/28 01:29:05;;;;;;;13.23;10.00;;;5.50;99.90;;;;;;5017961;28;20075;-82
2022/12/28 01:31:31;;;;;;;15.45;9.38;;;5.50;99.90;;;;;;4996547;28;20060;-82
2022/12/28 01:33:56;;;;;;;14.20;8.30;;;5.40;99.90;;;;;;5017425;28;20185;-82
2022/12/28 01:36:24;;;;;;;13.43;8.98;;;5.50;99.90;;;;;;4999796;28;20087;-80
2022/12/28 01:38:56;;;;;;;13.05;9.55;;;5.50;99.90;;;;;;5010221;28;20046;-82
2022/12/28 01:41:23;;;;;;;13.45;8.68;;;5.50;99.90;;;;;;4999505;28;20033;-82
2022/12/28 01:43:51;;;;;;;12.80;8.18;;;5.50;99.90;;;;;;5012921;28;20038;-82
2022/12/28 01:46:23;;;;;;;12.75;8.23;;;5.60;99.90;;;;;;5001228;28;20047;-82
2022/12/28 01:48:51;;;;;;;11.13;7.15;;;5.60;99.90;;;;;;4995291;28;20092;-82
2022/12/28 01:51:19;;;;;;;10.98;7.90;;;5.60;99.90;;;;;;5000654;28;20506;-82
2022/12/28 01:53:46;;;;;;;11.10;7.32;;;5.60;99.90;;;;;;5000564;28;20034;-81
2022/12/28 01:56:12;;;;;;;11.63;7.25;;;5.60;99.90;;;;;;5012240;28;20490;-81
2022/12/28 01:58:38;;;;;;;12.05;7.78;;;5.60;99.90;;;;;;5003355;28;20068;-81
2022/12/28 02:01:05;;;;;;;10.60;7.28;;;5.70;99.90;;;;;;5003177;28;20037;-82
2022/12/28 02:03:32;;;;;;;11.20;7.75;;;5.70;99.90;;;;;;4991467;28;20038;-82
2022/12/28 02:06:01;;;;;;;12.10;8.57;;;5.70;99.90;;;;;;5016678;28;20034;-82
2022/12/28 02:08:58;;;;;;;12.98;8.45;;;5.70;99.90;;;;;;4997341;28;20044;-83
2022/12/28 02:11:25;;;;;;;13.57;8.85;;;5.70;99.90;;;;;;5003545;28;20048;-82
2022/12/28 02:13:51;;;;;;;12.70;9.30;;;5.70;99.90;;;;;;4990846;28;20124;-82
2022/12/28 02:16:17;;;;;;;12.07;9.25;;;5.70;99.90;;;;;;5001057;28;20045;-82
2022/12/28 02:18:44;;;;;;;14.05;10.00;;;5.70;99.90;;;;;;5013770;28;20088;-82
2022/12/28 02:21:22;;;;;;;13.70;10.00;;;5.70;99.90;;;;;;4999240;28;20042;-82
2022/12/28 02:23:58;;;;;;;13.02;9.90;;;5.70;99.90;;;;;;5018789;28;20376;-82
2022/12/28 02:26:36;;;;;;;21.25;10.80;;;5.70;99.90;;;;;;4997328;28;20053;-82
2022/12/28 02:29:14;;;;;;;18.85;11.00;;;5.70;99.90;;;;;;4988917;28;20051;-83
2022/12/28 02:31:54;;;;;;;14.80;10.43;;;5.70;99.90;;;;;;5016707;28;20029;-82
2022/12/28 02:34:38;;;;;;;16.90;10.30;;;5.70;99.90;;;;;;5000155;28;20041;-82
2022/12/28 02:37:18;;;;;;;15.35;10.48;;;5.70;99.90;;;;;;5001327;28;20048;-83
2022/12/28 02:39:51;;;;;;;16.52;11.48;;;5.70;99.90;;;;;;5000368;28;20044;-83
2022/12/28 02:42:17;;;;;;;19.45;11.82;;;5.70;99.90;;;;;;5001631;28;20450;-82
2022/12/28 02:50:39;;;;;;;15.52;11.23;;;5.70;99.90;;;;;;4973000;28;20053;-82
2022/12/28 02:53:16;;;;;;;17.85;11.60;;;5.80;99.90;;;;;;5016977;28;20046;-82
2022/12/28 02:56:16;;;;;;;16.33;10.98;;;5.80;99.90;;;;;;5013857;28;20046;-82
2022/12/28 02:59:11;;;;;;;14.23;11.02;;;5.80;99.90;;;;;;5017014;28;20049;-82
2022/12/28 03:02:02;;;;;;;13.63;11.18;;;5.90;99.90;;;;;;5002736;28;20041;-82
2022/12/28 03:04:53;;;;;;;16.05;11.93;;;5.90;99.90;;;;;;4984794;28;20034;-82
2022/12/28 03:10:45;;;;;;;15.70;10.25;;;5.90;99.90;;;;;;5013796;28;20064;-81
2022/12/28 03:16:19;;;;;;;14.70;10.68;;;6.00;99.90;;;;;;5000566;28;20084;-82
2022/12/28 03:32:46;;;;;;;17.00;11.68;;;6.10;99.90;;;;;;5015909;28;20211;-82
2022/12/28 03:35:12;;;;;;;13.93;10.52;;;6.10;99.90;;;;;;4996990;28;20045;-81
2022/12/28 03:37:59;;;;;;;12.80;10.68;;;6.10;99.90;;;;;;5003495;28;20041;-82
2022/12/28 03:40:42;;;;;;;14.80;10.27;;;6.10;99.90;;;;;;4982889;28;20084;-81
2022/12/28 03:46:35;;;;;;;17.48;11.82;;;6.20;99.90;;;;;;5001655;28;20042;-81
2022/12/28 03:49:01;;;;;;;14.70;11.50;;;6.20;99.90;;;;;;5002545;28;20037;-81
2022/12/28 03:51:29;;;;;;;13.70;10.95;;;6.20;99.90;;;;;;5018714;28;20064;-82
2022/12/28 03:53:55;;;;;;;12.73;11.43;;;6.20;99.90;;;;;;5002635;28;20120;-81
2022/12/28 03:56:24;;;;;;;15.18;10.65;;;6.20;99.90;;;;;;5003188;28;20474;-81
2022/12/28 03:58:50;;;;;;;15.18;11.77;;;6.20;99.90;;;;;;5002884;28;20042;-81
2022/12/28 04:01:16;;;;;;;15.90;11.25;;;6.20;99.90;;;;;;5001139;28;20113;-81
2022/12/28 04:03:42;;;;;;;15.88;10.90;;;6.20;99.90;;;;;;5018843;28;20118;-81
2022/12/28 04:06:10;;;;;;;18.08;11.05;;;6.20;99.90;;;;;;4998693;28;20087;-81
2022/12/28 04:08:36;;;;;;;15.20;11.30;;;6.20;99.90;;;;;;5001496;28;20029;-80
2022/12/28 04:11:01;;;;;;;12.93;10.98;;;6.20;99.90;;;;;;5003508;28;20052;-81
2022/12/28 04:13:31;;;;;;;15.18;10.30;;;6.30;99.90;;;;;;5001808;28;20131;-81
2022/12/28 04:16:05;;;;;;;12.32;9.35;;;6.30;99.90;;;;;;5017621;28;20048;-80
2022/12/28 04:18:32;;;;;;;14.02;11.38;;;6.30;99.90;;;;;;5003095;28;20087;-80
2022/12/28 04:20:59;;;;;;;12.82;9.95;;;6.30;99.90;;;;;;5018612;28;20534;-81
2022/12/28 04:23:25;;;;;;;13.80;10.65;;;6.30;99.90;;;;;;5003198;28;20034;-80
2022/12/28 04:26:10;;;;;;;11.98;9.57;;;6.30;99.90;;;;;;5002621;28;20041;-81
2022/12/28 04:28:36;;;;;;;11.25;9.85;;;6.40;99.90;;;;;;5003385;28;20071;-80
2022/12/28 04:31:02;;;;;;;14.27;10.07;;;6.40;99.90;;;;;;5011852;28;20041;-81
2022/12/28 04:33:31;;;;;;;13.32;10.23;;;6.40;99.90;;;;;;5004208;28;20049;-80
2022/12/28 04:36:04;;;;;;;11.35;9.20;;;6.40;99.90;;;;;;5015872;28;20590;-82
2022/12/28 04:38:30;;;;;;;12.38;9.57;;;6.40;99.90;;;;;;5009067;28;20029;-81
2022/12/28 04:40:55;;;;;;;10.73;8.88;;;6.50;99.90;;;;;;5003360;28;20059;-81
2022/12/28 04:43:21;;;;;;;12.23;9.88;;;6.50;99.90;;;;;;5020708;28;20037;-80
2022/12/28 04:45:57;;;;;;;13.45;10.55;;;6.50;99.90;;;;;;5020424;28;20045;-81
2022/12/28 04:48:24;;;;;;;11.00;9.80;;;6.50;99.90;;;;;;5018395;28;20402;-82
2022/12/28 04:50:49;;;;;;;12.45;9.68;;;6.60;99.90;;;;;;5021996;28;20073;-82
2022/12/28 04:53:15;;;;;;;12.93;10.52;;;6.60;99.90;;;;;;5001911;28;20049;-81
2022/12/28 04:55:40;;;;;;;12.55;10.13;;;6.60;99.90;;;;;;5001576;28;20088;-81
2022/12/28 04:58:06;;;;;;;12.82;10.95;;;6.60;99.90;;;;;;4999792;28;20042;-81
2022/12/28 05:00:31;;;;;;;16.08;11.40;;;6.60;99.90;;;;;;4999005;28;20329;-81
2022/12/28 05:02:58;;;;;;;13.27;11.20;;;6.70;99.90;;;;;;5004737;28;20037;-81
2022/12/28 05:05:25;;;;;;;13.85;11.43;;;6.70;99.90;;;;;;5003968;28;20044;-80
2022/12/28 05:07:50;;;;;;;16.17;12.07;;;6.70;99.90;;;;;;5016845;28;20038;-80
2022/12/28 05:10:16;;;;;;;17.08;12.25;;;6.80;99.90;;;;;;5021797;28;20496;-80
2022/12/28 05:12:42;;;;;;;17.00;12.30;;;6.80;99.90;;;;;;5006349;28;20033;-80
2022/12/28 05:15:08;;;;;;;15.82;12.40;;;6.80;99.90;;;;;;5007207;28;20112;-81
2022/12/28 05:17:33;;;;;;;16.90;12.98;;;6.80;99.90;;;;;;5020938;28;20042;-80
2022/12/28 05:19:59;;;;;;;17.58;13.43;;;6.80;99.90;;;;;;5003374;28;20040;-80
2022/12/28 05:22:24;;;;;;;22.83;13.90;;;6.80;99.90;;;;;;5000268;28;20542;-80
2022/12/28 05:24:50;;;;;;;17.25;13.98;;;6.90;99.90;;;;;;5001038;28;20107;-80
2022/12/28 05:27:16;;;;;;;18.98;13.85;;;6.90;99.90;;;;;;4998114;28;20036;-80
2022/12/28 05:29:41;;;;;;;17.75;13.88;;;6.90;99.90;;;;;;5016397;28;20080;-80
2022/12/28 05:32:07;;;;;;;19.65;14.90;;;7.00;99.90;;;;;;5016139;28;20051;-80
2022/12/28 05:34:33;;;;;;;17.65;13.95;;;7.00;99.90;;;;;;5015772;28;20471;-80
2022/12/28 05:36:58;;;;;;;17.45;14.27;;;7.00;99.90;;;;;;4994756;28;20041;-81
2022/12/28 05:39:24;;;;;;;18.95;14.95;;;7.00;99.90;;;;;;4992910;28;20033;-80
2022/12/28 05:41:49;;;;;;;19.55;14.93;;;7.10;99.90;;;;;;5000878;28;20034;-81
2022/12/28 05:44:15;;;;;;;20.10;16.25;;;7.10;99.90;;;;;;5000359;28;20553;-81
2022/12/28 05:46:41;;;;;;;19.83;15.77;;;7.20;99.90;;;;;;4998682;28;20068;-81
2022/12/28 05:49:07;;;;;;;19.13;14.90;;;7.20;99.90;;;;;;5015550;28;20399;-81
2022/12/28 05:51:33;;;;;;;19.00;15.57;;;7.20;99.90;;;;;;5017509;28;20462;-81
2022/12/28 05:54:03;;;;;;;19.65;15.95;;;7.20;99.90;;;;;;5000686;28;20073;-80
2022/12/28 05:56:30;;;;;;;20.63;15.95;;;7.20;99.90;;;;;;5009022;28;20044;-80
2022/12/28 05:58:58;;;;;;;19.05;15.38;;;7.30;99.90;;;;;;5014217;28;20499;-81
2022/12/28 06:01:27;;;;;;;20.77;16.02;;;7.30;99.90;;;;;;4995298;28;20294;-81
2022/12/28 06:04:15;;;;;;;21.20;17.05;;;7.30;99.90;;;;;;5015797;28;20439;-81
2022/12/28 06:06:41;;;;;;;21.17;16.13;;;7.30;99.90;;;;;;5001064;28;20053;-80
2022/12/28 06:09:07;;;;;;;17.85;15.52;;;7.40;99.90;;;;;;5018351;28;20051;-81
2022/12/28 06:11:33;;;;;;;21.80;16.77;;;7.40;99.90;;;;;;5020181;28;20029;-80
2022/12/28 06:13:59;;;;;;;22.00;16.35;;;7.40;99.90;;;;;;5003009;28;20084;-81
2022/12/28 06:16:27;;;;;;;20.20;16.55;;;7.40;99.90;;;;;;5002058;28;20056;-80
2022/12/28 06:18:53;;;;;;;26.13;17.92;;;7.50;99.90;;;;;;5002443;28;20557;-81
2022/12/28 06:21:27;;;;;;;23.77;16.80;;;7.50;99.90;;;;;;5019437;28;20063;-81
2022/12/28 06:23:56;;;;;;;19.95;16.10;;;7.50;99.90;;;;;;5003623;28;20071;-80
2022/12/28 06:26:22;;;;;;;23.15;17.33;;;7.50;99.90;;;;;;5015007;28;20029;-80
2022/12/28 06:28:48;;;;;;;29.30;17.45;;;7.50;99.90;;;;;;5006488;28;20033;-80
2022/12/28 06:31:20;;;;;;;19.98;15.93;;;7.60;99.90;;;;;;5021050;28;20479;-80
2022/12/28 06:33:46;;;;;;;20.92;16.23;;;7.60;99.90;;;;;;5005757;28;20048;-81
2022/12/28 06:36:17;;;;;;;20.20;16.67;;;7.60;99.90;;;;;;5007232;28;20033;-81
2022/12/28 06:38:44;;;;;;;20.00;16.38;;;7.70;99.90;;;;;;5023631;28;20045;-81
2022/12/28 06:41:11;;;;;;;21.08;16.88;;;7.70;99.90;;;;;;5007206;28;20495;-80
2022/12/28 06:43:38;;;;;;;22.65;16.27;;;7.70;99.90;;;;;;5024720;28;20299;-81
2022/12/28 06:46:04;;;;;;;20.60;16.70;;;7.70;99.90;;;;;;5008034;28;20116;-81
2022/12/28 06:48:31;;;;;;;25.70;17.77;;;7.70;99.90;;;;;;5009541;28;20026;-81
2022/12/28 06:51:04;;;;;;;22.85;16.35;;;7.70;99.90;;;;;;5009148;28;20049;-80
2022/12/28 06:53:31;;;;;;;;;;;7.70;99.90;;;;;;5005453;28;20049;-81
2022/12/28 06:55:59;;;;;;;19.02;16.67;;;7.70;99.90;;;;;;5007849;28;19929;-81
2022/12/28 06:58:26;;;;;;;21.98;16.88;;;7.70;99.90;;;;;;5009491;28;20041;-80
2022/12/28 07:00:53;;;;;;;22.92;17.13;;;7.80;99.90;;;;;;5021039;28;20041;-80
2022/12/28 07:03:20;;;;;;;23.08;17.13;;;7.80;99.90;;;;;;5023728;28;20030;-81
2022/12/28 07:05:46;;;;;;;20.90;17.55;;;7.80;99.90;;;;;;5026679;28;20358;-81
2022/12/28 07:08:11;;;;;;;23.10;17.92;;;7.80;99.90;;;;;;5003626;28;20084;-81
2022/12/28 07:10:37;;;;;;;20.38;16.90;;;7.80;99.90;;;;;;5003675;28;20042;-81
2022/12/28 07:13:03;;;;;;;20.80;16.48;;;7.80;99.90;;;;;;5028672;28;20105;-81
2022/12/28 07:15:29;;;;;;;20.70;17.00;;;7.90;99.90;;;;;;5012162;28;20034;-81
2022/12/28 07:17:56;;;;;;;19.88;16.65;;;7.90;99.90;;;;;;5013009;28;20092;-81
2022/12/28 07:20:22;;;;;;;21.52;17.35;;;7.90;99.90;;;;;;5032057;28;20037;-81
2022/12/28 07:22:47;;;;;;;20.30;17.42;;;7.90;99.90;;;;;;5008785;28;20097;-81
2022/12/28 07:25:13;;;;;;;20.85;17.95;;;7.90;99.90;;;;;;5027450;28;20040;-81
2022/12/28 07:27:38;;;;;;;19.50;16.15;;;8.00;99.90;;;;;;5033596;28;20029;-80
2022/12/28 07:30:04;;;;;;;23.55;17.48;;;8.00;99.90;;;;;;5026598;28;20442;-78
2022/12/28 07:32:30;;;;;;;25.17;17.52;;;8.00;99.90;;;;;;5005384;28;20124;-78
2022/12/28 07:34:55;;;;;;;22.85;18.17;;;8.00;99.90;;;;;;5022967;28;20458;-78
2022/12/28 07:37:21;;;;;;;22.38;16.80;;;8.00;99.90;;;;;;5002571;28;20037;-78
2022/12/28 07:39:47;;;;;;;20.38;17.80;;;8.00;99.90;;;;;;4998240;28;20132;-78
2022/12/28 07:42:12;;;;;;;20.27;17.52;;;8.00;99.90;;;;;;5020002;28;20061;-79
2022/12/28 07:44:40;;;;;;;19.00;16.55;;;8.00;99.90;;;;;;4997739;28;20029;-78
2022/12/28 07:47:07;;;;;;;18.88;16.88;;;8.10;99.90;;;;;;5013618;28;20515;-79
2022/12/28 07:49:32;;;;;;;19.88;16.77;;;8.10;99.90;;;;;;5013412;28;20113;-80
2022/12/28 07:51:58;;;;;;;19.92;16.73;;;8.10;99.90;;;;;;5002050;28;20077;-79
2022/12/28 07:54:23;;;;;;;21.70;17.15;;;8.10;99.90;;;;;;4999470;28;20033;-80
2022/12/28 07:56:49;;;;;;;23.48;17.10;;;8.10;99.90;;;;;;4996689;28;20045;-80
2022/12/28 07:59:15;;;;;;;20.55;16.05;;;8.10;99.90;;;;;;5026814;28;20041;-80
2022/12/28 08:01:40;;;;;;;21.58;15.90;;;8.10;99.90;;;;;;5012439;28;20406;-79
2022/12/28 08:04:11;;;;;;;20.13;16.83;;;8.10;99.90;;;;;;4996772;28;20037;-79
2022/12/28 08:06:39;;;;;;;23.92;16.58;;;8.10;99.90;;;;;;5029022;28;20116;-80
2022/12/28 08:09:07;;;;;;;21.52;16.08;;;8.20;99.90;;;;;;5001481;28;20567;-80
2022/12/28 08:11:35;;;;;;;21.10;15.88;;;8.10;99.90;;;;;;4995567;28;20053;-80
2022/12/28 08:14:02;;;;;;;18.00;15.95;;;8.10;99.90;;;;;;5017884;28;20049;-79
2022/12/28 08:16:33;;;;;;;24.83;16.88;;;8.20;99.90;;;;;;5016608;28;20045;-78
2022/12/28 08:18:59;;;;;;;21.60;16.40;;;8.20;99.90;;;;;;5001085;28;20041;-78
2022/12/28 08:21:27;;;;;;;22.48;15.70;;;8.10;99.90;;;;;;4998047;28;20033;-81
2022/12/28 08:23:53;;;;;;;20.58;15.60;;;8.10;99.90;;;;;;5000424;28;20029;-80
2022/12/28 08:26:25;;;;;;;18.67;13.68;;;8.20;99.90;;;;;;5016490;28;20479;-81
2022/12/28 08:28:54;;;;;;;20.07;14.23;;;8.20;99.90;;;;;;5017759;28;20037;-79
2022/12/28 08:31:22;;;;;;;20.33;14.25;;;8.20;99.90;;;;;;5001717;28;20132;-80
2022/12/28 08:33:49;;;;;;;22.27;15.15;;;8.20;99.90;;;;;;5017837;28;20080;-79
2022/12/28 08:36:15;;;;;;;18.50;14.38;;;8.20;99.90;;;;;;5015622;28;20124;-79
2022/12/28 08:38:42;;;;;;;15.57;13.13;;;8.20;99.90;;;;;;5018587;28;20081;-79
2022/12/28 08:41:14;;;;;;;16.88;13.55;;;8.20;99.90;;;;;;4998235;28;20454;-79
2022/12/28 08:43:40;;;;;;;18.58;13.27;;;8.20;99.90;;;;;;5016876;28;20084;-79
2022/12/28 08:46:13;;;;;;;20.73;13.88;;;8.20;99.90;;;;;;5000913;28;20029;-79
2022/12/28 08:48:39;;;;;;;21.83;14.25;;;8.20;99.90;;;;;;5001117;28;20055;-79
2022/12/28 08:51:08;;;;;;;16.83;12.90;;;8.20;99.90;;;;;;5018203;28;20488;-79
2022/12/28 08:53:34;;;;;;;16.23;12.18;;;8.20;99.90;;;;;;5017867;28;20060;-79
2022/12/28 08:56:26;;;;;;;17.35;12.45;;;8.30;99.90;;;;;;5016705;28;20037;-79
2022/12/28 08:58:53;;;;;;;15.97;12.27;;;8.30;99.90;;;;;;4999735;28;20037;-79
2022/12/28 09:01:22;;;;;;;16.52;12.35;;;8.30;99.90;;;;;;5016173;28;20436;-79
2022/12/28 09:03:51;;;;;;;14.55;12.05;;;8.40;99.90;;;;;;5034093;28;20038;-80
2022/12/28 09:06:22;;;;;;;14.75;11.88;;;8.40;99.90;;;;;;5017872;28;20049;-79
2022/12/28 09:08:53;;;;;;;13.35;11.90;;;8.40;99.90;;;;;;5003448;28;20076;-82
2022/12/28 09:11:19;;;;;;;16.60;11.88;;;8.40;99.90;;;;;;5001189;28;20120;-82
2022/12/28 09:13:45;;;;;;;14.07;11.43;;;8.40;99.90;;;;;;5020926;28;20515;-80
2022/12/28 09:16:13;;;;;;;16.02;12.57;;;8.50;99.90;;;;;;5003711;28;20038;-78
2022/12/28 09:18:41;;;;;;;15.52;12.65;;;8.50;99.90;;;;;;4989509;28;20041;-79
2022/12/28 09:21:13;;;;;;;16.85;12.63;;;8.50;99.90;;;;;;5003075;28;20083;-78
2022/12/28 09:23:39;;;;;;;17.13;13.77;;;8.50;99.90;;;;;;5017491;28;20083;-80
2022/12/28 09:26:10;;;;;;;18.90;13.65;;;8.50;99.90;;;;;;4998936;28;20026;-81
2022/12/28 09:28:37;;;;;;;17.73;13.57;;;8.60;99.90;;;;;;4994700;28;20033;-81
2022/12/28 09:31:05;;;;;;;21.13;14.23;;;8.60;99.90;;;;;;5004948;28;20279;-82
2022/12/28 09:36:15;;;;;;;18.17;13.93;;;8.60;99.90;;;;;;5018191;28;20130;-81
2022/12/28 09:38:42;;;;;;;22.05;15.48;;;8.50;99.90;;;;;;5015669;28;20041;-81
2022/12/28 09:41:21;;;;;;;18.75;14.23;;;8.60;99.90;;;;;;5016938;28;20068;-81
2022/12/28 09:43:49;;;;;;;20.17;14.73;;;8.60;99.90;;;;;;5005189;28;20048;-80
2022/12/28 09:46:20;;;;;;;16.50;13.25;;;8.60;99.90;;;;;;5013541;28;20042;-80
2022/12/28 09:48:53;;;;;;;18.45;14.35;;;8.60;99.90;;;;;;5015561;28;20034;-82
2022/12/28 09:51:20;;;;;;;;;;;8.60;99.90;;;;;;5000634;28;20092;-82
2022/12/28 09:53:45;;;;;;;21.13;14.25;;;8.60;99.90;;;;;;5008853;28;21310;-79
2022/12/28 09:56:28;;;;;;;21.45;14.20;;;8.60;99.90;;;;;;4999609;28;20064;-81
2022/12/28 09:58:54;;;;;;;;;;;8.60;99.90;;;;;;4987721;28;20534;-82
2022/12/28 10:01:22;;;;;;;21.23;14.48;;;8.60;99.90;;;;;;5014943;28;19921;-80
2022/12/28 10:03:48;;;;;;;17.00;14.10;;;8.60;99.90;;;;;;5011451;28;20041;-81
2022/12/28 10:06:21;;;;;;;17.95;14.45;;;8.60;99.90;;;;;;5000330;28;20112;-80
2022/12/28 10:08:50;;;;;;;20.77;14.50;;;8.60;99.90;;;;;;4990736;28;20476;-80
2022/12/28 10:11:23;;;;;;;21.73;14.77;;;8.60;99.90;;;;;;5000970;28;20041;-79
2022/12/28 10:13:57;;;;;;;20.00;14.32;;;8.60;99.90;;;;;;5014873;28;20049;-79
2022/12/28 10:16:26;;;;;;;22.00;14.10;;;8.70;99.90;;;;;;5000952;28;20048;-80
2022/12/28 10:18:52;;;;;;;18.13;13.25;;;8.70;99.90;;;;;;4999046;28;20623;-80
2022/12/28 10:21:21;;;;;;;19.77;14.00;;;8.70;99.90;;;;;;5017414;28;20069;-81
2022/12/28 10:23:50;;;;;;;18.10;13.35;;;8.70;99.90;;;;;;4992576;28;20412;-85
2022/12/28 10:26:17;;;;;;;18.08;12.90;;;8.70;99.90;;;;;;5017545;28;20193;-79
2022/12/28 10:28:48;;;;;;;17.02;11.68;;;8.70;99.90;;;;;;5012639;28;20034;-79
2022/12/28 10:31:15;;;;;;;20.52;12.82;;;8.70;99.90;;;;;;5016330;28;20048;-79
2022/12/28 10:33:48;;;;;;;18.10;11.52;;;8.70;99.90;;;;;;5013449;28;20045;-79
2022/12/28 10:36:15;;;;;;;20.35;11.10;;;8.70;99.90;;;;;;4998990;28;20046;-78
2022/12/28 10:38:46;;;;;;;15.82;11.13;;;8.70;99.90;;;;;;5015822;28;20045;-80
2022/12/28 10:41:15;;;;;;;14.63;10.82;;;8.70;99.90;;;;;;5016352;28;20503;-79
2022/12/28 10:43:44;;;;;;;15.75;10.27;;;8.70;99.90;;;;;;4997719;28;20442;-80
2022/12/28 10:46:22;;;;;;;17.10;10.27;;;8.70;99.90;;;;;;5006855;28;20091;-79
2022/12/28 10:48:53;;;;;;;13.18;9.73;;;8.60;99.90;;;;;;5016250;28;20087;-80
2022/12/28 10:51:24;;;;;;;14.57;9.52;;;8.70;99.90;;;;;;5016812;28;20077;-79
2022/12/28 10:53:55;;;;;;;12.10;9.20;;;8.70;99.90;;;;;;5011261;28;20409;-79
2022/12/28 10:56:30;;;;;;;11.80;8.98;;;8.70;99.90;;;;;;5016742;28;20045;-80
2022/12/28 10:59:11;;;;;;;11.98;8.95;;;8.70;99.90;;;;;;5015092;28;20041;-79
2022/12/28 11:01:38;;;;;;;11.93;8.88;;;8.70;99.90;;;;;;4999262;28;20455;-79
2022/12/28 11:04:19;;;;;;;11.50;9.13;;;8.70;99.90;;;;;;4997837;28;20038;-79
2022/12/28 11:06:55;;;;;;;15.80;8.93;;;8.70;99.90;;;;;;5006496;28;20042;-79
2022/12/28 11:09:29;;;;;;;10.90;8.68;;;8.70;99.90;;;;;;5016477;28;20038;-79
2022/12/28 11:12:21;;;;;;;14.52;8.77;;;8.70;99.90;;;;;;5015463;28;20068;-78
2022/12/28 11:14:47;;;;;;;13.30;9.13;;;8.70;99.90;;;;;;5013712;28;20084;-78
2022/12/28 11:17:24;;;;;;;10.73;8.95;;;8.70;99.90;;;;;;5013924;28;20447;-79
2022/12/28 11:19:56;;;;;;;13.13;8.40;;;8.70;99.90;;;;;;4996026;28;20064;-80
2022/12/28 11:22:24;;;;;;;12.60;8.52;;;8.70;99.90;;;;;;4999310;28;20068;-82
2022/12/28 11:24:50;;;;;;;11.15;8.45;;;8.80;99.90;;;;;;5018829;28;20507;-82
2022/12/28 11:27:20;;;;;;;10.48;8.10;;;8.80;99.90;;;;;;5016947;28;20048;-80
2022/12/28 11:29:48;;;;;;;10.95;7.88;;;8.90;99.90;;;;;;5009072;28;20056;-79
2022/12/28 11:32:32;;;;;;;10.85;7.95;;;8.80;99.90;;;;;;5018268;28;20049;-79
2022/12/28 11:34:59;;;;;;;11.93;8.18;;;8.80;99.90;;;;;;5002160;28;20516;-79
2022/12/28 11:37:24;;;;;;;9.23;7.65;;;8.80;99.90;;;;;;5003544;28;20052;-80
2022/12/28 11:39:51;;;;;;;11.55;8.00;;;8.90;99.90;;;;;;5003997;28;20038;-81
2022/12/28 11:42:35;;;;;;;10.32;7.88;;;8.80;99.90;;;;;;5020024;28;20045;-80
2022/12/28 11:45:04;;;;;;;9.02;7.70;;;8.80;99.90;;;;;;5020544;28;20122;-80
2022/12/28 11:47:32;;;;;;;11.18;8.60;;;8.80;99.90;;;;;;5003782;28;20033;-79
2022/12/28 11:50:38;;;;;;;10.00;8.32;;;8.80;99.90;;;;;;5034447;28;20084;-80
2022/12/28 11:53:22;;;;;;;9.95;8.18;;;8.80;99.90;;;;;;5017690;28;20041;-81
2022/12/28 11:56:04;;;;;;;9.85;8.27;;;8.80;99.90;;;;;;5015040;28;20038;-79
2022/12/28 11:58:30;;;;;;;10.13;8.23;;;8.80;99.90;;;;;;4997176;28;20049;-81
2022/12/28 12:00:58;;;;;;;10.45;7.90;;;8.80;99.90;;;;;;5010771;28;20408;-79
2022/12/28 12:03:55;;;;;;;9.80;7.13;;;8.80;99.90;;;;;;5018823;28;20102;-80
2022/12/28 12:06:44;;;;;;;8.77;7.63;;;8.80;99.90;;;;;;5000419;23;20046;-77
2022/12/28 12:09:26;;;;;;;8.48;7.43;;;8.70;99.90;;;;;;4972486;28;20045;-76
2022/12/28 12:12:02;;;;;;;8.88;7.25;;;8.70;99.90;;;;;;4980081;28;20092;-75
2022/12/28 12:14:35;;;;;;;9.50;7.40;;;8.80;99.90;;;;;;4980241;28;20034;-75
2022/12/28 12:17:27;;;;;;;8.95;7.25;;;8.70;99.90;;;;;;4976733;28;20210;-76
2022/12/28 12:19:58;;;;;;;9.95;7.25;;;8.80;99.90;;;;;;4976584;28;20568;-75
2022/12/28 12:22:30;;;;;;;7.88;6.40;;;8.70;99.90;;;;;;4976838;28;20497;-76
2022/12/28 12:25:26;;;;;;;8.50;6.50;;;8.70;99.90;;;;;;4977203;28;20043;-75
2022/12/28 12:28:20;;;;;;;6.43;5.45;;;8.80;99.90;;;;;;4974674;28;20105;-75
2022/12/28 12:30:46;;;;;;;7.32;6.07;;;8.70;99.90;;;;;;4960293;28;20046;-75
2022/12/28 12:33:18;;;;;;;6.53;5.13;;;8.70;99.90;;;;;;4977060;28;20121;-76
2022/12/28 12:36:14;;;;;;;6.95;5.40;;;8.70;99.90;;;;;;4976634;28;20046;-75
2022/12/28 12:39:11;;;;;;;5.45;4.45;;;8.70;99.90;;;;;;4972663;28;20049;-75
2022/12/28 12:41:53;;;;;;;5.88;4.47;;;8.70;99.90;;;;;;4951388;28;20455;-75
2022/12/28 12:44:34;;;;;;;7.97;5.25;;;8.70;99.90;;;;;;4970801;28;20072;-75
2022/12/28 12:47:28;;;;;;;5.15;4.40;;;8.70;99.90;;;;;;4975695;28;20493;-76
2022/12/28 12:50:15;;;;;;;5.30;4.35;;;8.80;99.90;;;;;;4976405;28;20532;-75
2022/12/28 12:53:02;;;;;;;5.70;4.05;;;8.70;99.90;;;;;;4960231;28;20416;-76
2022/12/28 12:56:01;;;;;;;5.18;4.10;;;8.70;99.90;;;;;;4972556;28;20046;-76
2022/12/28 12:59:08;;;;;;;5.20;4.00;;;8.60;99.90;;;;;;4931009;28;20408;-75
2022/12/28 13:02:06;;;;;;;4.53;3.95;;;8.70;99.90;;;;;;4950428;28;20050;-77
2022/12/28 13:04:34;;;;;;;4.57;3.70;;;8.70;99.90;;;;;;4969584;28;20064;-77
2022/12/28 13:07:04;;;;;;;4.25;3.55;;;8.70;99.90;;;;;;4974571;28;20077;-75
2022/12/28 13:09:32;;;;;;;4.63;3.55;;;8.80;99.90;;;;;;4978026;28;20042;-76
2022/12/28 13:12:00;;;;;;;3.95;3.55;;;8.70;99.90;;;;;;4974566;28;20034;-76
2022/12/28 13:14:26;;;;;;;4.25;3.20;;;8.80;99.90;;;;;;4976591;28;20042;-75
2022/12/28 13:16:58;;;;;;;5.32;3.88;;;8.70;99.90;;;;;;4976929;28;20038;-76
2022/12/28 13:19:28;;;;;;;5.47;4.00;;;8.70;99.90;;;;;;4951184;28;20457;-77
2022/12/28 13:21:55;;;;;;;4.93;3.63;;;8.70;99.90;;;;;;4988672;28;20539;-76
2022/12/28 13:24:32;;;;;;;7.35;4.18;;;8.70;99.90;;;;;;4959155;28;20081;-76
2022/12/28 13:26:59;;;;;;;4.15;3.72;;;8.80;99.90;;;;;;4974070;28;20038;-76
2022/12/28 13:29:38;;;;;;;4.70;3.90;;;8.80;99.90;;;;;;4975743;28;20404;-76
2022/12/28 13:32:04;;;;;;;4.25;3.50;;;8.70;99.90;;;;;;4967025;28;20108;-77